Big Ready, Kentucky
Current Conditions -  °F | °C
As of 2:53 AM on Wednesday 26 Nov 2014 (Local Time) from KBWG Reporting Station
Clear Clear  
Wind Chill: 31°   Ceiling: Unl
Heat Index: 31°   Visibility: 9mi
Dew Point: 26°   Wind: 0mph
Humidity: 82%   Direction: NA
Pressure: 30.13"   Gusts: NA
Location:  37.2302°N, 86.4364°W
Report Text: KBWG 260853Z AUTO 00000KT 9SM CLR M01/M03 A3013 RMK AO2 SLP205 T10061033 56012
Loading
Personal Weather Stations






























Interactive Weather Map New forecast layout! Learn more

10-Day Weather Forecast

Advertisements
Track Severe Weather on mobile